Time;durP1;ratioP1;P1;durP2;ratioP2;P2;SDS_P1;SDS_P2;PMS_P1;PMS_P2;Temp;Humidity;BMP_temperature;BMP_pressure;BME280_temperature;BME280_humidity;BME280_pressure;Samples;Min_cycle;Max_cycle;Signal;HPM_P1;HPM_P2
2022/12/18 00:01:26;;;;;;;61.28;24.90;;;;;;;-3.69;87.30;100471.14;1702600;83;21077;-41
2022/12/18 00:03:53;;;;;;;53.63;25.72;;;;;;;-3.76;86.82;100484.70;1702614;83;21010;-41
2022/12/18 00:06:21;;;;;;;57.05;24.63;;;;;;;-3.76;86.82;100484.70;1702669;84;21472;-37
2022/12/18 00:08:47;;;;;;;56.00;25.08;;;;;;;-3.87;87.48;100477.61;1702528;84;21543;-35
2022/12/18 00:11:18;;;;;;;60.10;25.20;;;;;;;-3.82;87.26;100466.55;1702533;83;21042;-41
2022/12/18 00:13:44;;;;;;;62.05;26.40;;;;;;;-3.88;87.30;100476.28;1702428;84;20986;-35
2022/12/18 00:16:14;;;;;;;61.70;24.73;;;;;;;-3.75;87.48;100484.70;1702849;84;21030;-35
2022/12/18 00:18:40;;;;;;;60.80;25.55;;;;;;;-3.80;87.76;100482.87;1702698;83;21007;-40
2022/12/18 00:21:10;;;;;;;58.45;26.62;;;;;;;-3.71;87.45;100486.53;1702783;83;21411;-39
2022/12/18 00:23:37;;;;;;;55.75;24.92;;;;;;;-3.64;87.47;100490.08;1702612;83;20999;-38
2022/12/18 00:26:06;;;;;;;55.58;25.80;;;;;;;-3.66;87.33;100494.33;1702579;84;21488;-42
2022/12/18 00:28:32;;;;;;;66.82;28.67;;;;;;;-3.69;87.30;100498.13;1702726;84;21050;-37
2022/12/18 00:31:08;;;;;;;67.92;29.10;;;;;;;-3.57;87.50;100509.95;1702557;84;21467;-38
2022/12/18 00:33:36;;;;;;;65.40;27.40;;;;;;;-3.57;87.50;100509.95;1702497;84;20986;-37
2022/12/18 00:36:07;;;;;;;58.78;25.57;;;;;;;-3.53;86.99;100508.31;1702534;84;21544;-39
2022/12/18 00:38:34;;;;;;;57.08;23.80;;;;;;;-3.62;87.16;100515.83;1702482;83;21011;-38
2022/12/18 00:41:00;;;;;;;62.60;26.02;;;;;;;-3.62;87.16;100515.83;1702846;84;21035;-38
2022/12/18 00:43:26;;;;;;;67.42;26.35;;;;;;;-3.71;87.29;100507.09;1702557;84;20967;-37
2022/12/18 00:45:52;;;;;;;62.05;26.75;;;;;;;-3.71;87.29;100507.09;1702514;84;21504;-44
2022/12/18 00:48:17;;;;;;;63.38;26.73;;;;;;;-3.61;87.26;100517.15;1702611;84;21007;-37
2022/12/18 00:50:43;;;;;;;67.22;28.85;;;;;;;-3.55;86.96;100523.70;1702529;84;21029;-36
2022/12/18 00:53:11;;;;;;;65.12;28.15;;;;;;;-3.58;86.89;100523.66;1701820;84;20975;-37
2022/12/18 00:55:40;;;;;;;71.05;28.07;;;;;;;-3.55;86.94;100528.84;1690055;85;21004;-36
2022/12/18 00:58:07;;;;;;;61.90;26.17;;;;;;;-3.54;87.03;100539.59;1690034;84;21528;-42
2022/12/18 01:00:33;;;;;;;66.00;26.93;;;;;;;-3.45;86.94;100543.22;1690241;84;21015;-37
2022/12/18 01:02:58;;;;;;;57.67;25.02;;;;;;;-3.51;86.42;100544.81;1690048;84;20987;-37
2022/12/18 01:05:25;;;;;;;58.42;24.92;;;;;;;-3.72;86.61;100538.77;1689941;84;21007;-39
2022/12/18 01:07:51;;;;;;;57.20;25.50;;;;;;;-3.55;86.54;100541.70;1690142;85;21003;-38
2022/12/18 01:10:17;;;;;;;55.55;24.35;;;;;;;-3.50;86.53;100545.25;1690129;84;21047;-40
2022/12/18 01:12:44;;;;;;;53.75;24.40;;;;;;;-3.54;86.52;100534.45;1690036;85;21043;-41
2022/12/18 01:15:12;;;;;;;55.63;24.77;;;;;;;-3.52;86.21;100531.92;1690054;84;21000;-41
2022/12/18 01:17:38;;;;;;;59.77;26.57;;;;;;;-3.56;86.36;100540.41;1690118;85;20979;-38
2022/12/18 01:20:05;;;;;;;64.22;26.25;;;;;;;-3.56;86.36;100540.41;1689994;84;21003;-39
2022/12/18 01:22:34;;;;;;;49.08;21.93;;;;;;;-3.51;86.03;100557.67;1690229;84;21015;-41
2022/12/18 01:24:59;;;;;;;56.70;25.20;;;;;;;-3.60;86.20;100551.44;1690093;84;21042;-40
2022/12/18 01:27:25;;;;;;;47.15;21.15;;;;;;;-3.60;86.20;100551.44;1690021;84;20995;-40
2022/12/18 01:29:51;;;;;;;44.27;20.20;;;;;;;-3.56;86.17;100554.55;1690156;84;21387;-38
2022/12/18 01:32:17;;;;;;;58.75;25.60;;;;;;;-3.56;86.11;100558.41;1690042;84;21771;-40
2022/12/18 01:34:43;;;;;;;54.58;23.18;;;;;;;-3.60;86.04;100564.29;1690027;85;21488;-37
2022/12/18 01:37:10;;;;;;;48.42;22.55;;;;;;;-3.53;86.25;100565.77;1690072;84;21019;-39
2022/12/18 01:39:36;;;;;;;46.85;21.82;;;;;;;-3.56;85.77;100570.84;1690122;84;21006;-39
2022/12/18 01:42:12;;;;;;;52.08;22.93;;;;;;;-3.54;85.76;100564.02;1690093;85;20984;-37
2022/12/18 01:45:08;;;;;;;47.38;21.52;;;;;;;-3.71;85.65;100575.61;1690003;85;21532;-42
2022/12/18 01:47:51;;;;;;;58.13;23.37;;;;;;;-3.58;85.75;100569.08;1690262;84;20988;-39
2022/12/18 01:50:25;;;;;;;57.27;25.92;;;;;;;-3.68;86.13;100584.69;1690040;84;21516;-43
2022/12/18 01:52:58;;;;;;;51.35;22.70;;;;;;;-3.66;86.14;100593.30;1690036;85;21000;-38
2022/12/18 01:55:29;;;;;;;51.37;22.00;;;;;;;-3.72;85.97;100595.31;1688852;82;21000;-39
2022/12/18 01:57:58;;;;;;;45.90;22.77;;;;;;;-3.76;85.74;100593.94;1689045;85;20983;-37
2022/12/18 02:00:26;;;;;;;48.40;21.85;;;;;;;-3.72;86.01;100590.17;1690253;85;21552;-38
2022/12/18 02:02:54;;;;;;;51.05;23.52;;;;;;;-3.76;85.87;100602.52;1690149;85;21022;-38
2022/12/18 02:05:41;;;;;;;51.80;24.10;;;;;;;-3.83;86.12;100600.63;1690000;84;21007;-38
2022/12/18 02:08:24;;;;;;;57.48;25.43;;;;;;;-3.74;86.04;100599.98;1649769;85;21508;-36
2022/12/18 02:11:16;;;;;;;54.53;24.30;;;;;;;-3.72;86.25;100607.31;1689814;85;21035;-40
2022/12/18 02:13:56;;;;;;;55.67;23.45;;;;;;;-3.69;86.38;100609.54;1689997;84;21510;-37
2022/12/18 02:16:45;;;;;;;60.78;24.70;;;;;;;-3.64;85.82;100617.34;1689948;85;21027;-36
2022/12/18 02:19:29;;;;;;;56.28;23.70;;;;;;;-3.69;85.95;100613.39;1690060;85;20997;-37
2022/12/18 02:22:09;;;;;;;58.60;25.08;;;;;;;-3.70;86.11;100617.20;1689244;85;21493;-39
2022/12/18 02:24:46;;;;;;;51.63;22.95;;;;;;;-3.75;86.15;100618.38;1689959;84;21536;-39
2022/12/18 02:27:13;;;;;;;;;;;;;;;-3.75;86.15;100618.38;1691214;85;21003;-38
2022/12/18 02:29:44;;;;;;;59.40;25.35;;;;;;;-3.81;85.98;100619.95;1690108;84;20143;-36
2022/12/18 02:32:26;;;;;;;55.95;25.35;;;;;;;-3.74;85.91;100621.83;1690023;84;21508;-37
2022/12/18 02:34:56;;;;;;;55.98;23.45;;;;;;;-3.73;85.85;100629.59;1690015;85;21048;-42
2022/12/18 02:37:23;;;;;;;51.95;24.90;;;;;;;-3.70;85.82;100633.92;1689719;85;21038;-38
2022/12/18 02:39:52;;;;;;;55.83;25.60;;;;;;;-3.74;85.86;100634.69;1690162;85;21070;-38
2022/12/18 02:42:18;;;;;;;53.05;24.37;;;;;;;-3.76;85.76;100636.36;1689860;84;20987;-39
2022/12/18 02:44:48;;;;;;;54.40;25.50;;;;;;;-3.63;85.77;100640.09;1690214;85;21004;-37
2022/12/18 02:47:20;;;;;;;57.85;25.25;;;;;;;-3.65;85.69;100645.19;1689946;85;21046;-38
2022/12/18 02:50:04;;;;;;;60.03;25.05;;;;;;;-3.58;85.30;100650.94;1689933;84;20988;-37
2022/12/18 02:52:44;;;;;;;58.80;25.50;;;;;;;-3.73;85.31;100643.73;1689843;84;21030;-39
2022/12/18 02:55:33;;;;;;;62.00;26.62;;;;;;;-3.66;85.52;100653.72;1689826;82;21074;-40
2022/12/18 02:58:19;;;;;;;56.73;24.90;;;;;;;-3.67;85.61;100652.86;1689581;85;21036;-39
2022/12/18 03:01:13;;;;;;;56.68;25.02;;;;;;;-3.67;85.50;100652.86;1690138;84;21338;-39
2022/12/18 03:03:50;;;;;;;58.20;26.02;;;;;;;-3.61;85.46;100661.56;1689905;85;21006;-39
2022/12/18 03:06:30;;;;;;;55.52;24.40;;;;;;;-3.58;85.53;100657.36;1689973;84;21055;-40
2022/12/18 03:09:04;;;;;;;48.75;24.23;;;;;;;-3.54;85.45;100654.02;1689989;85;21007;-40
2022/12/18 03:14:20;;;;;;;55.70;25.55;;;;;;;-3.59;85.23;100659.47;1690034;85;21658;-38
2022/12/18 03:16:49;;;;;;;48.92;22.60;;;;;;;-3.53;85.14;100663.88;1662453;85;21059;-36
2022/12/18 03:19:20;;;;;;;50.25;24.30;;;;;;;-3.51;84.53;100662.21;1690036;85;21038;-38
2022/12/18 03:21:50;;;;;;;46.00;22.58;;;;;;;-3.55;84.62;100674.13;1690068;85;21504;-38
2022/12/18 03:24:19;;;;;;;48.73;23.22;;;;;;;-3.59;84.32;100671.04;1689938;85;20984;-39
2022/12/18 03:26:50;;;;;;;49.73;24.00;;;;;;;-3.59;84.32;100671.04;1689963;85;20999;-39
2022/12/18 03:29:21;;;;;;;48.65;23.50;;;;;;;-3.71;84.81;100678.05;1690150;84;21003;-38
2022/12/18 03:31:54;;;;;;;46.65;23.45;;;;;;;-3.72;84.86;100693.00;1689313;85;21567;-38
2022/12/18 03:34:26;;;;;;;52.70;24.18;;;;;;;-3.72;84.86;100693.00;1690380;84;21208;-43
2022/12/18 03:36:52;;;;;;;56.55;25.37;;;;;;;-3.69;85.00;100699.94;1689975;85;21007;-41
2022/12/18 03:39:19;;;;;;;51.53;24.82;;;;;;;-3.69;85.11;100701.23;1690092;84;21042;-36
2022/12/18 03:42:08;;;;;;;55.43;26.05;;;;;;;-3.58;85.09;100707.92;1690214;84;21047;-37
2022/12/18 03:44:44;;;;;;;55.58;25.43;;;;;;;-3.53;84.74;100712.34;1690151;85;21007;-39
2022/12/18 03:47:31;;;;;;;57.75;27.32;;;;;;;-3.55;84.46;100720.41;1690265;85;21002;-38
2022/12/18 03:50:05;;;;;;;55.70;26.10;;;;;;;-3.50;84.60;100720.12;1690210;85;20991;-39
2022/12/18 03:52:50;;;;;;;60.65;26.62;;;;;;;-3.52;84.64;100721.78;1689696;84;21008;-37
2022/12/18 03:55:18;;;;;;;54.15;26.10;;;;;;;-3.52;84.64;100721.78;1690051;83;21019;-41
2022/12/18 03:57:45;;;;;;;53.15;25.52;;;;;;;-3.49;84.47;100721.87;1662609;85;21500;-37
2022/12/18 04:00:17;;;;;;;55.15;25.57;;;;;;;-3.54;84.26;100724.73;1690296;84;21010;-36
2022/12/18 04:02:51;;;;;;;52.30;25.80;;;;;;;-3.58;84.50;100734.50;1690076;84;21011;-37
2022/12/18 04:05:19;;;;;;;57.58;26.37;;;;;;;-3.55;84.66;100734.98;1690101;85;21457;-38
2022/12/18 04:07:48;;;;;;;52.98;24.18;;;;;;;-3.45;84.38;100742.53;1690070;85;21544;-38
2022/12/18 04:10:16;;;;;;;59.48;27.15;;;;;;;-3.45;84.38;100742.53;1690112;84;20976;-43
2022/12/18 04:12:42;;;;;;;54.80;24.47;;;;;;;-3.48;84.43;100740.73;1690008;84;21532;-38
2022/12/18 04:15:10;;;;;;;54.70;25.77;;;;;;;-3.50;84.54;100740.69;1690062;85;21011;-38
2022/12/18 04:17:37;;;;;;;53.40;25.17;;;;;;;-3.50;84.69;100740.69;1690014;85;21056;-39
2022/12/18 04:20:04;;;;;;;56.85;26.12;;;;;;;-3.44;84.46;100744.25;1690109;84;21492;-40
2022/12/18 04:22:29;;;;;;;57.63;25.97;;;;;;;-3.44;84.46;100744.25;1690345;85;20976;-40
2022/12/18 04:24:55;;;;;;;62.58;26.82;;;;;;;-3.46;84.19;100748.06;1690078;85;21691;-39
2022/12/18 04:27:21;;;;;;;63.42;26.17;;;;;;;-3.52;84.53;100752.64;1690167;84;21624;-41
2022/12/18 04:29:47;;;;;;;56.15;25.10;;;;;;;-3.50;84.60;100750.12;1690066;85;21039;-38
2022/12/18 04:32:12;;;;;;;55.50;26.25;;;;;;;-3.45;84.29;100748.96;1690122;84;21481;-42
2022/12/18 04:34:38;;;;;;;72.78;32.55;;;;;;;-3.40;84.28;100748.63;1690108;84;21011;-38
2022/12/18 04:37:04;;;;;;;55.50;26.65;;;;;;;-3.38;84.02;100758.57;1690039;84;20999;-37
2022/12/18 04:39:30;;;;;;;54.83;25.62;;;;;;;-3.52;84.24;100771.93;1690044;84;21002;-39
2022/12/18 04:41:55;;;;;;;60.33;27.37;;;;;;;-3.52;84.24;100771.93;1690052;84;20975;-40
2022/12/18 04:44:21;;;;;;;57.20;27.70;;;;;;;-3.55;84.08;100778.70;1690023;84;21003;-37
2022/12/18 04:46:47;;;;;;;61.02;27.82;;;;;;;-3.58;84.28;100783.36;1690016;84;20964;-38
2022/12/18 04:49:12;;;;;;;59.83;28.07;;;;;;;-3.61;84.45;100776.84;1690084;84;21077;-43
2022/12/18 04:51:38;;;;;;;62.00;26.77;;;;;;;-3.53;84.28;100788.21;1690218;84;21007;-41
2022/12/18 04:54:04;;;;;;;56.83;28.30;;;;;;;-3.63;84.26;100782.36;1689977;84;21053;-40
2022/12/18 04:56:31;;;;;;;63.50;28.92;;;;;;;-3.73;84.29;100782.94;1686841;85;21047;-38
2022/12/18 04:58:57;;;;;;;62.62;29.07;;;;;;;-3.78;85.13;100790.94;1687029;85;21011;-41
2022/12/18 05:01:23;;;;;;;58.90;28.45;;;;;;;-3.75;85.25;100791.03;1686884;84;21536;-40
2022/12/18 05:03:51;;;;;;;59.18;28.92;;;;;;;-3.75;85.25;100791.03;1686913;84;21039;-39
2022/12/18 05:06:17;;;;;;;68.00;29.90;;;;;;;-3.71;84.85;100791.55;1686918;85;21074;-42
2022/12/18 05:08:43;;;;;;;67.85;31.42;;;;;;;-3.65;84.94;100799.45;1686792;84;21140;-41
2022/12/18 05:11:15;;;;;;;69.67;31.02;;;;;;;-3.64;85.02;100801.17;1686832;84;21007;-37
2022/12/18 05:13:41;;;;;;;69.40;31.15;;;;;;;-3.60;84.87;100800.45;1686690;85;21011;-42
2022/12/18 05:16:07;;;;;;;62.80;29.50;;;;;;;-3.60;84.87;100800.45;1687075;84;20999;-38
2022/12/18 05:18:33;;;;;;;68.10;31.00;;;;;;;-3.59;84.77;100809.03;1687013;85;21003;-37
2022/12/18 05:20:59;;;;;;;68.78;31.60;;;;;;;-3.60;84.55;100810.73;1686917;84;21054;-37
2022/12/18 05:23:26;;;;;;;62.03;29.25;;;;;;;-3.63;84.48;100809.36;1686835;85;21528;-41
2022/12/18 05:25:57;;;;;;;66.50;31.43;;;;;;;-3.53;84.37;100815.21;1687102;85;21488;-37
2022/12/18 05:28:25;;;;;;;68.95;30.50;;;;;;;-3.53;84.19;100807.50;1686716;84;20972;-39
2022/12/18 05:30:53;;;;;;;64.55;31.15;;;;;;;-3.52;84.29;100804.08;1686953;85;21634;-42
2022/12/18 05:33:20;;;;;;;68.75;32.15;;;;;;;-3.44;84.12;100818.41;1686759;85;21007;-41
2022/12/18 05:35:55;;;;;;;71.10;31.20;;;;;;;-3.44;84.12;100818.41;1686902;85;20979;-37
2022/12/18 05:38:22;;;;;;;68.50;31.85;;;;;;;-3.42;84.03;100814.20;1686474;85;21047;-37
2022/12/18 05:40:50;;;;;;;71.80;32.48;;;;;;;-3.48;83.68;100816.17;1686846;84;21500;-39
2022/12/18 05:43:16;;;;;;;76.07;32.17;;;;;;;-3.51;83.53;100822.55;1686784;85;21032;-40
2022/12/18 05:45:42;;;;;;;66.87;31.43;;;;;;;-3.48;83.45;100824.31;1686993;85;21456;-41
2022/12/18 05:48:11;;;;;;;69.60;31.33;;;;;;;-3.53;83.71;100818.17;1686842;85;20976;-38
2022/12/18 05:50:39;;;;;;;72.22;32.05;;;;;;;-3.55;83.69;100829.70;1686879;85;21012;-38
2022/12/18 05:53:06;;;;;;;;;;;;;;;-3.51;83.92;100834.52;1689243;85;21015;-39
2022/12/18 05:55:40;;;;;;;64.87;30.00;;;;;;;-3.49;83.68;100835.03;1686833;83;20166;-39
2022/12/18 05:58:08;;;;;;;73.17;31.42;;;;;;;-3.52;83.47;100832.37;1686772;84;21523;-39
2022/12/18 06:00:39;;;;;;;70.47;32.05;;;;;;;-3.45;83.54;100833.84;1686884;85;21016;-41
2022/12/18 06:03:04;;;;;;;72.97;31.73;;;;;;;-3.43;83.51;100837.31;1686659;85;20968;-37
2022/12/18 06:05:42;;;;;;;73.52;33.65;;;;;;;-3.43;83.29;100841.17;1686779;84;21024;-41
2022/12/18 06:08:08;;;;;;;71.15;32.17;;;;;;;-3.52;83.16;100843.94;1686432;85;20995;-39
2022/12/18 06:10:34;;;;;;;69.57;31.67;;;;;;;-3.44;83.41;100844.14;1686984;85;21000;-38
2022/12/18 06:13:00;;;;;;;76.22;33.98;;;;;;;-3.54;83.11;100849.46;1686813;85;21729;-37
2022/12/18 06:15:26;;;;;;;75.50;33.73;;;;;;;-3.54;83.48;100852.03;1686729;85;21007;-39
2022/12/18 06:17:52;;;;;;;74.27;33.35;;;;;;;-3.53;83.46;100855.08;1686735;84;20996;-39
2022/12/18 06:20:18;;;;;;;83.42;35.15;;;;;;;-3.50;83.55;100865.42;1686804;85;20968;-38
2022/12/18 06:22:44;;;;;;;79.42;33.42;;;;;;;-3.51;83.35;100868.84;1686868;84;21043;-40
2022/12/18 06:25:10;;;;;;;73.70;31.87;;;;;;;-3.49;83.41;100873.61;1686781;84;21616;-37
2022/12/18 06:27:36;;;;;;;76.92;32.65;;;;;;;-3.51;83.24;100888.13;1686868;85;21465;-35
2022/12/18 06:30:03;;;;;;;75.87;33.23;;;;;;;-3.54;83.55;100879.03;1686769;85;21003;-40
2022/12/18 06:32:29;;;;;;;76.45;31.75;;;;;;;-3.54;83.34;100884.60;1686858;84;21039;-39
2022/12/18 06:34:55;;;;;;;75.40;33.78;;;;;;;-3.49;83.29;100889.04;1686705;84;21115;-39
2022/12/18 06:37:24;;;;;;;87.90;35.70;;;;;;;-3.58;83.31;100885.35;1686739;84;20999;-42
2022/12/18 06:39:49;;;;;;;87.15;36.63;;;;;;;-3.58;83.36;100896.50;1686622;85;20983;-39
2022/12/18 06:42:15;;;;;;;78.28;32.05;;;;;;;-3.55;83.34;100900.84;1686734;85;21055;-41
2022/12/18 06:44:41;;;;;;;81.17;34.92;;;;;;;-3.54;83.05;100900.89;1686779;84;21039;-38
2022/12/18 06:47:06;;;;;;;79.97;35.70;;;;;;;-3.56;82.99;100904.27;1686877;84;21063;-40
2022/12/18 06:49:32;;;;;;;67.60;31.17;;;;;;;-3.56;83.44;100914.55;1686691;84;20984;-37
2022/12/18 06:51:58;;;;;;;78.83;32.08;;;;;;;-3.57;83.29;100913.66;1686741;84;20976;-41
2022/12/18 06:54:24;;;;;;;81.08;35.25;;;;;;;-3.52;83.17;100921.52;1686096;85;21528;-40
2022/12/18 06:56:49;;;;;;;74.03;34.60;;;;;;;-3.42;83.06;100918.77;1700334;84;20999;-43
2022/12/18 06:59:15;;;;;;;77.53;32.28;;;;;;;-3.39;82.89;100933.02;1702441;83;21555;-43
2022/12/18 07:01:41;;;;;;;76.80;34.43;;;;;;;-3.47;82.87;100948.24;1702487;84;21508;-42
2022/12/18 07:04:06;;;;;;;80.83;34.25;;;;;;;-3.50;82.92;100954.15;1701616;84;21530;-38
2022/12/18 07:06:32;;;;;;;66.22;30.70;;;;;;;-3.52;82.65;100956.23;1701761;84;21461;-37
2022/12/18 07:08:58;;;;;;;74.35;33.28;;;;;;;-3.59;82.58;100962.89;1702634;84;21026;-38
2022/12/18 07:11:24;;;;;;;69.35;31.95;;;;;;;-3.76;82.72;100960.25;1702556;84;21037;-41
2022/12/18 07:13:50;;;;;;;71.92;31.07;;;;;;;-3.72;83.19;100964.66;1702587;84;21002;-42
2022/12/18 07:16:18;;;;;;;67.92;29.35;;;;;;;-3.74;82.78;100972.31;1702666;84;21007;-41
2022/12/18 07:18:45;;;;;;;85.12;32.88;;;;;;;-3.75;82.93;100969.27;1702453;84;21011;-41
2022/12/18 07:21:15;;;;;;;76.42;31.60;;;;;;;-3.78;83.06;100968.30;1702592;84;21007;-41
2022/12/18 07:23:41;;;;;;;75.95;31.70;;;;;;;-3.75;83.02;100974.41;1702593;84;20967;-36
2022/12/18 07:26:12;;;;;;;78.28;32.85;;;;;;;-3.86;83.37;100979.27;1702652;84;20994;-41
2022/12/18 07:28:40;;;;;;;74.07;31.07;;;;;;;-3.80;83.47;100987.96;1702568;84;21042;-34
2022/12/18 07:31:14;;;;;;;71.77;30.35;;;;;;;-3.79;83.40;100991.87;1702532;83;21042;-39
2022/12/18 07:33:40;;;;;;;74.90;28.95;;;;;;;-3.72;83.12;100991.23;1702173;84;20971;-37
2022/12/18 07:36:08;;;;;;;76.12;31.15;;;;;;;-3.87;83.76;100994.21;1702803;83;21555;-39
2022/12/18 07:38:35;;;;;;;69.80;29.63;;;;;;;-3.87;83.76;100994.21;1674372;84;20982;-36
2022/12/18 07:41:04;;;;;;;75.30;30.40;;;;;;;-3.74;83.52;100992.02;1702848;84;20979;-37
2022/12/18 07:43:30;;;;;;;74.90;30.57;;;;;;;-3.80;82.90;100996.56;1702378;84;21042;-41
2022/12/18 07:45:56;;;;;;;75.22;30.92;;;;;;;-3.75;82.80;100994.98;1702545;84;21022;-39
2022/12/18 07:48:22;;;;;;;71.97;30.97;;;;;;;-3.74;83.07;100986.88;1702560;84;21010;-39
2022/12/18 07:50:47;;;;;;;77.90;32.05;;;;;;;-3.62;83.25;100996.25;1702545;84;21011;-37
2022/12/18 07:53:14;;;;;;;73.67;31.57;;;;;;;-3.62;82.88;100996.25;1702531;84;21010;-37
2022/12/18 07:55:41;;;;;;;78.12;32.73;;;;;;;-3.55;82.92;100996.86;1698075;83;21071;-39
2022/12/18 07:58:08;;;;;;;75.62;31.70;;;;;;;-3.55;82.92;100996.86;1686989;85;21461;-39
2022/12/18 08:00:34;;;;;;;78.90;33.18;;;;;;;-3.51;82.37;101002.58;1687017;84;21043;-36
2022/12/18 08:03:00;;;;;;;75.85;32.25;;;;;;;-3.60;82.27;101004.88;1686966;85;21046;-39
2022/12/18 08:05:26;;;;;;;90.05;35.03;;;;;;;-3.54;82.11;101011.48;1686874;84;21003;-38
2022/12/18 08:07:52;;;;;;;89.20;34.67;;;;;;;-3.61;81.92;101012.12;1686851;85;21007;-41
2022/12/18 08:10:19;;;;;;;87.53;34.27;;;;;;;-3.58;81.85;101021.22;1686860;84;21004;-39
2022/12/18 08:12:45;;;;;;;83.80;34.13;;;;;;;-3.58;81.85;101021.22;1687031;85;20987;-41
2022/12/18 08:15:11;;;;;;;93.35;35.60;;;;;;;-3.53;82.31;101014.52;1686828;85;21697;-39
2022/12/18 08:17:37;;;;;;;79.07;33.92;;;;;;;-3.55;82.26;101020.00;1686918;85;20991;-40
2022/12/18 08:20:03;;;;;;;76.07;32.17;;;;;;;-3.48;82.05;101029.64;1686839;85;21028;-40
2022/12/18 08:22:29;;;;;;;71.42;32.05;;;;;;;-3.50;81.80;101027.88;1686922;85;21019;-38
2022/12/18 08:24:54;;;;;;;66.97;28.40;;;;;;;-3.55;81.57;101034.15;1686851;84;21043;-41
2022/12/18 08:27:20;;;;;;;76.07;31.00;;;;;;;-3.63;81.34;101043.77;1686772;84;20999;-41
2022/12/18 08:29:46;;;;;;;70.70;30.92;;;;;;;-3.78;81.51;101039.00;1686817;85;21038;-38
2022/12/18 08:32:12;;;;;;;80.05;31.48;;;;;;;-3.65;81.97;101045.42;1686868;84;21034;-37
2022/12/18 08:34:38;;;;;;;71.95;30.65;;;;;;;-3.51;81.94;101038.97;1686853;84;21015;-37
2022/12/18 08:37:03;;;;;;;77.97;31.70;;;;;;;-3.49;81.57;101042.06;1686871;84;21003;-36
2022/12/18 08:39:29;;;;;;;74.07;30.75;;;;;;;-3.32;81.57;101040.41;1686837;84;21007;-39
2022/12/18 08:44:39;;;;;;;87.08;34.03;;;;;;;-3.18;80.77;101044.25;1686894;85;20980;-38
2022/12/18 08:47:06;;;;;;;92.67;35.80;;;;;;;-3.28;80.35;101035.80;1686890;84;21560;-39
2022/12/18 08:49:32;;;;;;;75.78;31.10;;;;;;;-3.21;80.50;101040.72;1687060;85;21540;-39
2022/12/18 08:51:58;;;;;;;67.60;29.95;;;;;;;-3.26;80.36;101041.86;1686977;84;20999;-36
2022/12/18 08:54:24;;;;;;;72.45;29.67;;;;;;;-3.13;80.07;101052.09;1686705;84;21011;-40
2022/12/18 08:56:50;;;;;;;69.55;29.70;;;;;;;-3.07;80.02;101057.81;1697019;83;21026;-39
2022/12/18 08:59:17;;;;;;;84.15;34.03;;;;;;;-3.16;79.20;101061.89;1702564;84;21002;-34
2022/12/18 09:01:43;;;;;;;74.37;32.93;;;;;;;-3.16;79.51;101064.89;1702565;84;20991;-39
2022/12/18 09:04:09;;;;;;;93.22;40.67;;;;;;;-3.29;79.80;101061.09;1702609;84;21488;-39
2022/12/18 09:06:36;;;;;;;97.92;41.50;;;;;;;-3.11;80.32;101066.77;1702446;84;21519;-39
2022/12/18 09:09:03;;;;;;;111.77;44.35;;;;;;;-3.24;79.72;101073.64;1702448;84;21550;-37
2022/12/18 09:11:31;;;;;;;;;;;;;;;-3.24;79.72;101073.64;1705022;84;21031;-37
2022/12/18 09:13:58;;;;;;;151.02;53.63;;;;;;;-3.27;80.05;101074.86;1702476;84;20134;-39
2022/12/18 09:16:25;;;;;;;156.90;57.60;;;;;;;-3.27;80.05;101083.88;1701946;83;21010;-41
2022/12/18 09:18:53;;;;;;;96.95;38.85;;;;;;;-3.29;80.19;101082.53;1702723;84;21468;-36
2022/12/18 09:21:21;;;;;;;95.55;41.25;;;;;;;-3.27;80.16;101083.88;1702362;84;20963;-38
2022/12/18 09:23:51;;;;;;;100.33;43.28;;;;;;;-3.25;80.22;101082.21;1702554;83;20967;-35
2022/12/18 09:26:17;;;;;;;78.35;33.48;;;;;;;-3.22;80.11;101078.45;1702425;84;21003;-36
2022/12/18 09:28:43;;;;;;;74.42;31.27;;;;;;;-3.09;80.03;101088.27;1702523;84;20967;-35
2022/12/18 09:31:17;;;;;;;71.55;31.35;;;;;;;-3.05;79.12;101085.79;1702544;84;21476;-38
2022/12/18 09:33:45;;;;;;;90.35;34.38;;;;;;;-3.05;79.12;101085.79;1701714;84;21038;-40
2022/12/18 09:36:13;;;;;;;;;;;;;;;-3.03;79.46;101085.41;1705033;84;21480;-36
2022/12/18 09:38:39;;;;;;;168.22;58.30;;;;;;;-3.21;79.19;101094.33;1702600;83;20166;-35
2022/12/18 09:41:29;;;;;;;103.83;39.30;;;;;;;-3.20;79.39;101093.91;1702381;84;21011;-35
2022/12/18 09:44:16;;;;;;;85.70;35.33;;;;;;;-3.22;79.80;101102.00;1694713;84;21003;-39
2022/12/18 09:46:47;;;;;;;80.35;31.70;;;;;;;-3.19;79.65;101091.38;1698902;84;21527;-39
2022/12/18 09:49:17;;;;;;;75.37;31.97;;;;;;;-3.15;79.79;101100.93;1702542;83;21038;-38
2022/12/18 09:51:54;;;;;;;73.75;31.10;;;;;;;-3.19;79.66;101096.53;1702547;84;21516;-40
2022/12/18 09:54:28;;;;;;;79.92;32.85;;;;;;;-3.11;79.35;101096.75;1702735;84;21038;-36
2022/12/18 09:56:54;;;;;;;80.92;33.23;;;;;;;-3.16;79.16;101102.20;1701986;83;21552;-39
2022/12/18 09:59:36;;;;;;;73.02;31.15;;;;;;;-3.16;79.16;101102.20;1702431;83;21002;-42
2022/12/18 10:02:22;;;;;;;76.40;32.03;;;;;;;-3.35;79.02;101100.34;1702452;84;20994;-38
2022/12/18 10:05:05;;;;;;;83.20;33.63;;;;;;;-3.32;79.06;101091.86;1692494;84;21033;-36
2022/12/18 10:07:42;;;;;;;81.20;33.58;;;;;;;-3.25;79.15;101096.36;1701675;84;20990;-43
2022/12/18 10:10:48;;;;;;;87.82;34.98;;;;;;;-3.49;79.26;101090.94;1702716;84;20996;-39
2022/12/18 10:13:37;;;;;;;83.70;33.77;;;;;;;-3.37;79.31;101095.98;1702774;84;21007;-37
2022/12/18 10:16:15;;;;;;;79.35;31.97;;;;;;;-3.48;79.46;101088.80;1702142;83;21018;-38
2022/12/18 10:19:14;;;;;;;87.47;33.55;;;;;;;-3.58;79.76;101088.50;1702244;84;21141;-39
2022/12/18 10:22:00;;;;;;;83.50;33.42;;;;;;;-3.60;80.12;101084.59;1702500;84;21007;-38
2022/12/18 10:24:48;;;;;;;95.15;39.00;;;;;;;-3.49;79.92;101091.36;1702265;84;21509;-39
2022/12/18 10:27:18;;;;;;;91.42;35.35;;;;;;;-3.53;79.87;101086.53;1701479;83;20994;-38
2022/12/18 10:29:45;;;;;;;84.80;34.20;;;;;;;-3.49;79.90;101095.22;1702532;84;21499;-39
2022/12/18 10:32:24;;;;;;;89.58;34.35;;;;;;;-3.42;80.10;101091.11;1702687;84;21185;-36
2022/12/18 10:34:53;;;;;;;88.12;35.45;;;;;;;-3.35;79.58;101093.05;1702515;83;21026;-38
2022/12/18 10:37:23;;;;;;;91.02;37.00;;;;;;;-3.50;79.18;101084.03;1702621;84;21035;-40
2022/12/18 10:40:15;;;;;;;89.85;37.67;;;;;;;-3.35;79.17;101095.61;1702585;84;21003;-37
2022/12/18 10:42:43;;;;;;;89.13;35.17;;;;;;;-3.26;79.20;101090.74;1702532;84;21038;-37
2022/12/18 10:45:14;;;;;;;84.72;33.00;;;;;;;-3.24;79.26;101104.52;1702558;84;21042;-37
2022/12/18 10:47:47;;;;;;;77.55;31.50;;;;;;;-3.32;78.70;101096.58;1702557;83;20963;-39
2022/12/18 10:50:32;;;;;;;84.32;31.33;;;;;;;-3.38;78.44;101099.41;1702606;84;21487;-37
2022/12/18 10:53:01;;;;;;;76.02;31.95;;;;;;;-3.38;78.44;101099.41;1702502;84;20986;-38
2022/12/18 10:55:40;;;;;;;73.40;28.95;;;;;;;-3.42;78.75;101110.41;1702469;83;21015;-37
2022/12/18 10:58:32;;;;;;;84.80;31.70;;;;;;;-3.40;79.02;101095.49;1658051;85;21383;-39
2022/12/18 11:01:15;;;;;;;74.22;30.85;;;;;;;-3.40;79.02;101095.49;1654908;86;21015;-40
2022/12/18 11:03:47;;;;;;;82.10;33.23;;;;;;;-3.35;78.40;101104.63;1654951;85;21484;-38
2022/12/18 11:06:16;;;;;;;96.35;37.10;;;;;;;-3.35;78.40;101104.63;1657863;86;21031;-40
2022/12/18 11:08:46;;;;;;;77.95;31.48;;;;;;;-3.42;78.63;101097.54;1668585;85;21001;-38
2022/12/18 11:11:22;;;;;;;80.20;33.23;;;;;;;-3.42;78.63;101097.54;1670037;85;20993;-36
2022/12/18 11:14:17;;;;;;;76.12;31.80;;;;;;;-3.34;79.21;101108.53;1668750;85;21016;-38
2022/12/18 11:16:46;;;;;;;72.80;31.20;;;;;;;-3.34;79.21;101108.53;1668965;86;21001;-40
2022/12/18 11:19:35;;;;;;;75.37;29.87;;;;;;;-3.30;78.59;101106.92;1669067;85;21534;-40
2022/12/18 11:22:06;;;;;;;76.70;31.45;;;;;;;-3.21;78.70;101098.61;1668895;85;21495;-35
2022/12/18 11:24:35;;;;;;;78.20;30.68;;;;;;;-3.32;78.19;101103.44;1670037;85;21561;-37
2022/12/18 11:27:05;;;;;;;80.65;32.80;;;;;;;-3.24;78.48;101107.09;1657986;86;20996;-39
2022/12/18 11:29:39;;;;;;;70.35;29.98;;;;;;;-3.32;78.53;101105.59;1668929;85;21016;-37